sensor_id;sensor_type;location;lat;lon;timestamp;pressure;altitude;pressure_sealevel;temperature;humidity
55079;BME280;55187;49.496;6.010;2024-01-30T00:01:09;98785.88;;;12.82;68.44
55079;BME280;55187;49.496;6.010;2024-01-30T00:03:36;98799.72;;;12.52;69.30
55079;BME280;55187;49.496;6.010;2024-01-30T00:06:05;98789.47;;;12.49;69.55
55079;BME280;55187;49.496;6.010;2024-01-30T00:08:42;98790.28;;;12.50;69.64
55079;BME280;55187;49.496;6.010;2024-01-30T00:11:16;98792.47;;;12.30;70.25
55079;BME280;55187;49.496;6.010;2024-01-30T00:13:42;98793.28;;;12.38;70.25
55079;BME280;55187;49.496;6.010;2024-01-30T00:16:20;98784.47;;;12.46;70.01
55079;BME280;55187;49.496;6.010;2024-01-30T00:18:47;98784.78;;;12.51;69.70
55079;BME280;55187;49.496;6.010;2024-01-30T00:21:13;98781.50;;;12.41;69.86
55079;BME280;55187;49.496;6.010;2024-01-30T00:23:41;98780.81;;;12.47;69.79
55079;BME280;55187;49.496;6.010;2024-01-30T00:26:07;98779.34;;;12.28;70.13
55079;BME280;55187;49.496;6.010;2024-01-30T00:28:34;98776.88;;;12.18;70.94
55079;BME280;55187;49.496;6.010;2024-01-30T00:31:00;98777.69;;;12.19;70.84
55079;BME280;55187;49.496;6.010;2024-01-30T00:33:27;98780.03;;;12.22;70.91
55079;BME280;55187;49.496;6.010;2024-01-30T00:35:53;98777.38;;;12.22;70.74
55079;BME280;55187;49.496;6.010;2024-01-30T00:38:22;98782.00;;;12.28;70.64
55079;BME280;55187;49.496;6.010;2024-01-30T00:40:51;98784.50;;;12.30;70.70
55079;BME280;55187;49.496;6.010;2024-01-30T00:43:18;98781.34;;;12.43;70.08
55079;BME280;55187;49.496;6.010;2024-01-30T00:45:45;98776.03;;;12.43;69.95
55079;BME280;55187;49.496;6.010;2024-01-30T00:48:11;98784.97;;;12.42;70.20
55079;BME280;55187;49.496;6.010;2024-01-30T00:50:38;98791.28;;;12.41;70.13
55079;BME280;55187;49.496;6.010;2024-01-30T00:53:04;98782.47;;;12.56;69.60
55079;BME280;55187;49.496;6.010;2024-01-30T00:55:31;98785.47;;;12.37;70.05
55079;BME280;55187;49.496;6.010;2024-01-30T00:57:57;98786.28;;;12.37;70.13
55079;BME280;55187;49.496;6.010;2024-01-30T01:00:24;98788.63;;;12.32;70.22
55079;BME280;55187;49.496;6.010;2024-01-30T01:02:55;98787.00;;;12.31;70.12
55079;BME280;55187;49.496;6.010;2024-01-30T01:05:22;98778.84;;;12.33;70.19
55079;BME280;55187;49.496;6.010;2024-01-30T01:07:48;98778.69;;;12.43;70.05
55079;BME280;55187;49.496;6.010;2024-01-30T01:10:16;98787.81;;;12.24;70.72
55079;BME280;55187;49.496;6.010;2024-01-30T01:15:53;98780.03;;;12.22;70.51
55079;BME280;55187;49.496;6.010;2024-01-30T01:18:20;98783.50;;;12.23;70.54
55079;BME280;55187;49.496;6.010;2024-01-30T01:20:46;98787.50;;;12.18;69.18
55079;BME280;55187;49.496;6.010;2024-01-30T01:23:13;98788.31;;;12.27;69.12
55079;BME280;55187;49.496;6.010;2024-01-30T01:25:39;98783.84;;;12.36;69.03
55079;BME280;55187;49.496;6.010;2024-01-30T01:28:06;98784.66;;;12.36;69.22
55079;BME280;55187;49.496;6.010;2024-01-30T01:30:32;98784.50;;;12.38;69.28
55079;BME280;55187;49.496;6.010;2024-01-30T01:32:59;98781.00;;;12.37;69.41
55079;BME280;55187;49.496;6.010;2024-01-30T01:35:28;98775.69;;;12.37;69.39
55079;BME280;55187;49.496;6.010;2024-01-30T01:37:55;98779.50;;;12.43;69.60
55079;BME280;55187;49.496;6.010;2024-01-30T01:40:24;98775.53;;;12.47;69.53
55079;BME280;55187;49.496;6.010;2024-01-30T01:42:52;98779.81;;;12.56;69.16
55079;BME280;55187;49.496;6.010;2024-01-30T01:45:19;98777.16;;;12.56;68.90
55079;BME280;55187;49.496;6.010;2024-01-30T01:47:48;98773.00;;;12.54;69.11
55079;BME280;55187;49.496;6.010;2024-01-30T01:50:16;98773.97;;;12.61;69.22
55079;BME280;55187;49.496;6.010;2024-01-30T01:52:49;98767.16;;;12.67;68.94
55079;BME280;55187;49.496;6.010;2024-01-30T01:55:17;98769.09;;;12.81;68.77
55079;BME280;55187;49.496;6.010;2024-01-30T01:57:48;98765.25;;;12.84;68.55
55079;BME280;55187;49.496;6.010;2024-01-30T02:00:14;98771.41;;;12.84;68.35
55079;BME280;55187;49.496;6.010;2024-01-30T02:02:43;98767.38;;;12.96;68.06
55079;BME280;55187;49.496;6.010;2024-01-30T02:05:11;98758.97;;;12.85;68.35
55079;BME280;55187;49.496;6.010;2024-01-30T02:07:38;98762.22;;;12.95;68.05
55079;BME280;55187;49.496;6.010;2024-01-30T02:10:05;98765.91;;;12.86;68.22
55079;BME280;55187;49.496;6.010;2024-01-30T02:12:32;98765.25;;;12.84;68.57
55079;BME280;55187;49.496;6.010;2024-01-30T02:14:58;98765.75;;;12.87;68.37
55079;BME280;55187;49.496;6.010;2024-01-30T02:17:25;98759.56;;;12.95;68.14
55079;BME280;55187;49.496;6.010;2024-01-30T02:19:51;98759.41;;;12.96;68.12
55079;BME280;55187;49.496;6.010;2024-01-30T02:22:19;98756.25;;;12.93;68.18
55079;BME280;55187;49.496;6.010;2024-01-30T02:24:46;98753.44;;;12.94;68.17
55079;BME280;55187;49.496;6.010;2024-01-30T02:27:15;98754.09;;;12.96;68.52
55079;BME280;55187;49.496;6.010;2024-01-30T02:29:44;98752.91;;;12.99;68.10
55079;BME280;55187;49.496;6.010;2024-01-30T02:32:10;98747.97;;;12.88;68.52
55079;BME280;55187;49.496;6.010;2024-01-30T02:34:37;98747.81;;;12.89;68.15
55079;BME280;55187;49.496;6.010;2024-01-30T02:37:03;98742.97;;;12.93;68.27
55079;BME280;55187;49.496;6.010;2024-01-30T02:39:30;98756.34;;;13.08;67.68
55079;BME280;55187;49.496;6.010;2024-01-30T02:41:59;98749.88;;;13.10;67.49
55079;BME280;55187;49.496;6.010;2024-01-30T02:44:26;98751.53;;;13.11;67.61
55079;BME280;55187;49.496;6.010;2024-01-30T02:46:52;98752.81;;;13.15;67.55
55079;BME280;55187;49.496;6.010;2024-01-30T02:49:20;98746.81;;;13.21;67.28
55079;BME280;55187;49.496;6.010;2024-01-30T02:51:47;98750.66;;;13.19;67.43
55079;BME280;55187;49.496;6.010;2024-01-30T02:54:13;98755.88;;;13.04;67.81
55079;BME280;55187;49.496;6.010;2024-01-30T02:56:40;98749.38;;;13.07;67.76
55079;BME280;55187;49.496;6.010;2024-01-30T02:59:06;98747.22;;;13.02;67.71
55079;BME280;55187;49.496;6.010;2024-01-30T03:01:32;98746.72;;;13.07;67.64
55079;BME280;55187;49.496;6.010;2024-01-30T03:03:59;98750.53;;;13.12;67.56
55079;BME280;55187;49.496;6.010;2024-01-30T03:06:25;98767.50;;;13.03;67.81
55079;BME280;55187;49.496;6.010;2024-01-30T03:08:52;98749.13;;;12.93;68.17
55079;BME280;55187;49.496;6.010;2024-01-30T03:11:18;98750.47;;;12.89;68.25
55079;BME280;55187;49.496;6.010;2024-01-30T03:16:08;98750.19;;;12.76;68.79
55079;BME280;55187;49.496;6.010;2024-01-30T03:18:35;98748.59;;;12.58;69.31
55079;BME280;55187;49.496;6.010;2024-01-30T03:21:01;98757.91;;;12.46;69.66
55079;BME280;55187;49.496;6.010;2024-01-30T03:23:27;98753.75;;;12.52;69.71
55079;BME280;55187;49.496;6.010;2024-01-30T03:25:54;98745.94;;;12.58;69.68
55079;BME280;55187;49.496;6.010;2024-01-30T03:28:20;98746.63;;;12.52;69.83
55079;BME280;55187;49.496;6.010;2024-01-30T03:30:47;98766.53;;;12.48;69.88
55079;BME280;55187;49.496;6.010;2024-01-30T03:33:18;98759.59;;;12.47;69.90
55079;BME280;55187;49.496;6.010;2024-01-30T03:35:44;98756.56;;;12.58;69.51
55079;BME280;55187;49.496;6.010;2024-01-30T03:38:11;98750.25;;;12.51;69.55
55079;BME280;55187;49.496;6.010;2024-01-30T03:40:37;98754.28;;;12.47;69.83
55079;BME280;55187;49.496;6.010;2024-01-30T03:43:03;98756.06;;;12.47;70.06
55079;BME280;55187;49.496;6.010;2024-01-30T03:45:31;98755.09;;;12.48;69.93
55079;BME280;55187;49.496;6.010;2024-01-30T03:47:57;98762.41;;;12.54;69.65
55079;BME280;55187;49.496;6.010;2024-01-30T03:50:24;98765.03;;;12.54;69.59
55079;BME280;55187;49.496;6.010;2024-01-30T03:52:50;98775.00;;;12.44;70.00
55079;BME280;55187;49.496;6.010;2024-01-30T03:55:17;98774.66;;;12.47;69.80
55079;BME280;55187;49.496;6.010;2024-01-30T03:57:43;98774.19;;;12.35;70.17
55079;BME280;55187;49.496;6.010;2024-01-30T04:00:10;98775.53;;;12.47;69.75
55079;BME280;55187;49.496;6.010;2024-01-30T04:02:39;98762.19;;;12.64;69.16
55079;BME280;55187;49.496;6.010;2024-01-30T04:05:06;98760.38;;;12.56;69.49
55079;BME280;55187;49.496;6.010;2024-01-30T04:07:32;98758.88;;;12.62;69.24
55079;BME280;55187;49.496;6.010;2024-01-30T04:09:59;98762.81;;;12.74;68.82
55079;BME280;55187;49.496;6.010;2024-01-30T04:12:25;98756.69;;;12.65;68.97
55079;BME280;55187;49.496;6.010;2024-01-30T04:14:52;98762.34;;;12.62;69.34
55079;BME280;55187;49.496;6.010;2024-01-30T04:17:19;98760.56;;;12.54;69.47
55079;BME280;55187;49.496;6.010;2024-01-30T04:19:45;98767.56;;;12.47;69.82
55079;BME280;55187;49.496;6.010;2024-01-30T04:22:12;98761.06;;;12.42;69.92
55079;BME280;55187;49.496;6.010;2024-01-30T04:24:38;98765.41;;;12.43;69.67
55079;BME280;55187;49.496;6.010;2024-01-30T04:27:05;98766.56;;;12.40;69.97
55079;BME280;55187;49.496;6.010;2024-01-30T04:29:31;98766.06;;;12.45;69.68
55079;BME280;55187;49.496;6.010;2024-01-30T04:31:59;98763.06;;;12.48;69.62
55079;BME280;55187;49.496;6.010;2024-01-30T04:34:25;98774.16;;;12.51;69.57
55079;BME280;55187;49.496;6.010;2024-01-30T04:36:55;98759.75;;;12.54;69.47
55079;BME280;55187;49.496;6.010;2024-01-30T04:39:22;98759.03;;;12.60;69.21
55079;BME280;55187;49.496;6.010;2024-01-30T04:41:48;98763.38;;;12.61;69.11
55079;BME280;55187;49.496;6.010;2024-01-30T04:44:14;98754.06;;;12.57;69.32
55079;BME280;55187;49.496;6.010;2024-01-30T04:46:41;98761.03;;;12.58;69.08
55079;BME280;55187;49.496;6.010;2024-01-30T04:49:07;98768.72;;;12.45;69.59
55079;BME280;55187;49.496;6.010;2024-01-30T04:51:34;98761.59;;;12.45;69.63
55079;BME280;55187;49.496;6.010;2024-01-30T04:54:00;98775.16;;;12.50;69.53
55079;BME280;55187;49.496;6.010;2024-01-30T04:56:27;98774.03;;;12.45;69.60
55079;BME280;55187;49.496;6.010;2024-01-30T04:58:53;98772.03;;;12.38;69.75
55079;BME280;55187;49.496;6.010;2024-01-30T05:01:19;98775.22;;;12.34;70.18
55079;BME280;55187;49.496;6.010;2024-01-30T05:03:46;98775.69;;;12.37;69.94
55079;BME280;55187;49.496;6.010;2024-01-30T05:06:12;98764.41;;;12.44;69.69
55079;BME280;55187;49.496;6.010;2024-01-30T05:08:39;98776.34;;;12.48;69.56
55079;BME280;55187;49.496;6.010;2024-01-30T05:11:05;98775.16;;;12.50;69.45
55079;BME280;55187;49.496;6.010;2024-01-30T05:13:32;98766.38;;;12.50;69.27
55079;BME280;55187;49.496;6.010;2024-01-30T05:16:20;98763.88;;;12.56;69.38
55079;BME280;55187;49.496;6.010;2024-01-30T05:18:46;98767.56;;;12.47;69.41
55079;BME280;55187;49.496;6.010;2024-01-30T05:21:13;98764.75;;;12.41;69.75
55079;BME280;55187;49.496;6.010;2024-01-30T05:23:39;98761.06;;;12.42;69.69
55079;BME280;55187;49.496;6.010;2024-01-30T05:26:08;98766.69;;;12.47;69.74
55079;BME280;55187;49.496;6.010;2024-01-30T05:28:34;98774.16;;;12.51;69.47
55079;BME280;55187;49.496;6.010;2024-01-30T05:31:01;98773.69;;;12.48;69.53
55079;BME280;55187;49.496;6.010;2024-01-30T05:33:27;98776.50;;;12.46;69.58
55079;BME280;55187;49.496;6.010;2024-01-30T05:35:54;98779.97;;;12.55;69.16
55079;BME280;55187;49.496;6.010;2024-01-30T05:38:20;98785.44;;;12.53;69.01
55079;BME280;55187;49.496;6.010;2024-01-30T05:40:47;98774.16;;;12.59;68.88
55079;BME280;55187;49.496;6.010;2024-01-30T05:43:13;98772.31;;;12.68;68.62
55079;BME280;55187;49.496;6.010;2024-01-30T05:45:39;98775.13;;;12.67;68.72
55079;BME280;55187;49.496;6.010;2024-01-30T05:48:06;98765.66;;;12.72;68.46
55079;BME280;55187;49.496;6.010;2024-01-30T05:50:32;98756.16;;;12.78;68.11
55079;BME280;55187;49.496;6.010;2024-01-30T05:52:59;98749.31;;;12.84;67.99
55079;BME280;55187;49.496;6.010;2024-01-30T05:55:25;98755.84;;;12.73;68.16
55079;BME280;55187;49.496;6.010;2024-01-30T05:57:51;98760.47;;;12.79;67.99
55079;BME280;55187;49.496;6.010;2024-01-30T06:00:18;98772.25;;;12.85;67.94
55079;BME280;55187;49.496;6.010;2024-01-30T06:02:45;98777.25;;;12.79;67.76
55079;BME280;55187;49.496;6.010;2024-01-30T06:05:11;98773.72;;;12.79;68.01
55079;BME280;55187;49.496;6.010;2024-01-30T06:07:38;98773.94;;;12.77;68.17
55079;BME280;55187;49.496;6.010;2024-01-30T06:10:05;98777.41;;;12.78;68.27
55079;BME280;55187;49.496;6.010;2024-01-30T06:12:31;98778.88;;;12.80;68.08
55079;BME280;55187;49.496;6.010;2024-01-30T06:16:46;98780.31;;;12.99;67.54
55079;BME280;55187;49.496;6.010;2024-01-30T06:19:13;98773.00;;;13.01;67.34
55079;BME280;55187;49.496;6.010;2024-01-30T06:21:39;98770.31;;;13.01;67.44
55079;BME280;55187;49.496;6.010;2024-01-30T06:24:06;98770.72;;;12.90;67.59
55079;BME280;55187;49.496;6.010;2024-01-30T06:26:33;98761.47;;;12.70;65.44
55079;BME280;55187;49.496;6.010;2024-01-30T06:29:00;98762.34;;;12.62;66.03
55079;BME280;55187;49.496;6.010;2024-01-30T06:31:26;98774.97;;;12.60;67.32
55079;BME280;55187;49.496;6.010;2024-01-30T06:33:53;98777.97;;;12.57;67.47
55079;BME280;55187;49.496;6.010;2024-01-30T06:36:19;98776.50;;;12.54;68.10
55079;BME280;55187;49.496;6.010;2024-01-30T06:38:46;98779.66;;;12.50;68.00
55079;BME280;55187;49.496;6.010;2024-01-30T06:41:12;98772.53;;;12.42;68.40
55079;BME280;55187;49.496;6.010;2024-01-30T06:43:39;98775.34;;;12.41;68.58
55079;BME280;55187;49.496;6.010;2024-01-30T06:46:06;98771.69;;;12.42;68.65
55079;BME280;55187;49.496;6.010;2024-01-30T06:48:32;98771.03;;;12.39;68.67
55079;BME280;55187;49.496;6.010;2024-01-30T06:50:59;98771.03;;;12.48;68.70
55079;BME280;55187;49.496;6.010;2024-01-30T06:53:25;98772.34;;;12.44;68.61
55079;BME280;55187;49.496;6.010;2024-01-30T06:55:52;98774.66;;;12.55;68.29
55079;BME280;55187;49.496;6.010;2024-01-30T06:58:19;98763.16;;;12.63;68.26
55079;BME280;55187;49.496;6.010;2024-01-30T07:00:45;98767.16;;;12.67;67.85
55079;BME280;55187;49.496;6.010;2024-01-30T07:03:11;98758.34;;;12.66;68.06
55079;BME280;55187;49.496;6.010;2024-01-30T07:05:38;98778.13;;;12.55;68.15
55079;BME280;55187;49.496;6.010;2024-01-30T07:08:05;98781.50;;;12.41;68.81
55079;BME280;55187;49.496;6.010;2024-01-30T07:10:31;98788.94;;;12.37;68.78
55079;BME280;55187;49.496;6.010;2024-01-30T07:12:58;98783.13;;;12.42;68.90
55079;BME280;55187;49.496;6.010;2024-01-30T07:17:13;98793.94;;;12.41;68.99
55079;BME280;55187;49.496;6.010;2024-01-30T07:19:39;98791.09;;;12.42;69.20
55079;BME280;55187;49.496;6.010;2024-01-30T07:22:06;98796.59;;;12.41;68.81
55079;BME280;55187;49.496;6.010;2024-01-30T07:24:33;98793.63;;;12.27;69.40
55079;BME280;55187;49.496;6.010;2024-01-30T07:26:59;98787.16;;;12.13;69.72
55079;BME280;55187;49.496;6.010;2024-01-30T07:29:26;98787.69;;;12.17;69.93
55079;BME280;55187;49.496;6.010;2024-01-30T07:31:52;98782.19;;;12.18;70.10
55079;BME280;55187;49.496;6.010;2024-01-30T07:34:18;98778.53;;;12.28;69.75
55079;BME280;55187;49.496;6.010;2024-01-30T07:36:45;98774.53;;;12.32;69.42
55079;BME280;55187;49.496;6.010;2024-01-30T07:39:13;98785.78;;;12.42;69.13
55079;BME280;55187;49.496;6.010;2024-01-30T07:41:39;98780.00;;;12.30;69.62
55079;BME280;55187;49.496;6.010;2024-01-30T07:44:06;98790.63;;;12.30;69.69
55079;BME280;55187;49.496;6.010;2024-01-30T07:46:32;98800.25;;;12.31;69.50
55079;BME280;55187;49.496;6.010;2024-01-30T07:48:58;98796.09;;;12.37;69.28
55079;BME280;55187;49.496;6.010;2024-01-30T07:51:26;98811.03;;;12.30;69.74
55079;BME280;55187;49.496;6.010;2024-01-30T07:53:54;98803.09;;;12.22;69.99
55079;BME280;55187;49.496;6.010;2024-01-30T07:56:24;98816.03;;;12.16;70.15
55079;BME280;55187;49.496;6.010;2024-01-30T07:58:51;98809.06;;;12.15;70.35
55079;BME280;55187;49.496;6.010;2024-01-30T08:01:18;98823.69;;;12.03;70.75
55079;BME280;55187;49.496;6.010;2024-01-30T08:03:45;98820.69;;;12.06;70.73
55079;BME280;55187;49.496;6.010;2024-01-30T08:06:11;98819.03;;;12.13;70.43
55079;BME280;55187;49.496;6.010;2024-01-30T08:08:38;98827.50;;;12.17;70.18
55079;BME280;55187;49.496;6.010;2024-01-30T08:11:04;98820.31;;;12.26;70.13
55079;BME280;55187;49.496;6.010;2024-01-30T08:13:31;98822.47;;;12.30;69.83
55079;BME280;55187;49.496;6.010;2024-01-30T08:17:40;98837.41;;;12.39;69.49
55079;BME280;55187;49.496;6.010;2024-01-30T08:20:07;98850.19;;;12.36;69.39
55079;BME280;55187;49.496;6.010;2024-01-30T08:22:39;98846.03;;;12.42;69.19
55079;BME280;55187;49.496;6.010;2024-01-30T08:25:07;98842.72;;;12.39;69.37
55079;BME280;55187;49.496;6.010;2024-01-30T08:27:34;98845.88;;;12.35;69.54
55079;BME280;55187;49.496;6.010;2024-01-30T08:30:02;98850.34;;;12.34;69.78
55079;BME280;55187;49.496;6.010;2024-01-30T08:32:29;98850.34;;;12.34;69.63
55079;BME280;55187;49.496;6.010;2024-01-30T08:34:56;98841.06;;;12.38;69.50
55079;BME280;55187;49.496;6.010;2024-01-30T08:37:25;98844.03;;;12.44;69.38
55079;BME280;55187;49.496;6.010;2024-01-30T08:39:52;98841.91;;;12.47;69.27
55079;BME280;55187;49.496;6.010;2024-01-30T08:42:20;98835.72;;;12.47;69.31
55079;BME280;55187;49.496;6.010;2024-01-30T08:44:49;98840.41;;;12.45;69.47
55079;BME280;55187;49.496;6.010;2024-01-30T08:47:17;98835.88;;;12.53;69.08
55079;BME280;55187;49.496;6.010;2024-01-30T08:49:47;98834.41;;;12.59;68.94
55079;BME280;55187;49.496;6.010;2024-01-30T08:52:14;98830.59;;;12.53;69.08
55079;BME280;55187;49.496;6.010;2024-01-30T08:54:46;98832.06;;;12.56;69.11
55079;BME280;55187;49.496;6.010;2024-01-30T08:57:14;98838.22;;;12.56;69.05
55079;BME280;55187;49.496;6.010;2024-01-30T08:59:41;98851.94;;;12.76;68.53
55079;BME280;55187;49.496;6.010;2024-01-30T09:02:10;98857.59;;;12.73;68.45
55079;BME280;55187;49.496;6.010;2024-01-30T09:04:39;98862.91;;;12.65;68.73
55079;BME280;55187;49.496;6.010;2024-01-30T09:07:05;98872.41;;;12.59;69.12
55079;BME280;55187;49.496;6.010;2024-01-30T09:09:34;98862.63;;;12.52;69.44
55079;BME280;55187;49.496;6.010;2024-01-30T09:12:01;98866.41;;;12.74;68.90
55079;BME280;55187;49.496;6.010;2024-01-30T09:14:33;98863.09;;;12.72;68.57
55079;BME280;55187;49.496;6.010;2024-01-30T10:19:12;98906.56;;;12.95;68.31
55079;BME280;55187;49.496;6.010;2024-01-30T10:21:39;98910.88;;;12.96;68.33
55079;BME280;55187;49.496;6.010;2024-01-30T10:24:05;98899.59;;;12.78;68.91
55079;BME280;55187;49.496;6.010;2024-01-30T10:26:32;98908.22;;;12.72;69.26
55079;BME280;55187;49.496;6.010;2024-01-30T10:29:00;98902.09;;;12.71;69.21
55079;BME280;55187;49.496;6.010;2024-01-30T10:31:26;98905.75;;;12.78;69.12
55079;BME280;55187;49.496;6.010;2024-01-30T10:33:53;98905.94;;;12.77;69.00
55079;BME280;55187;49.496;6.010;2024-01-30T10:36:25;98902.75;;;12.73;68.86
55079;BME280;55187;49.496;6.010;2024-01-30T10:38:55;98892.13;;;12.73;69.26
55079;BME280;55187;49.496;6.010;2024-01-30T10:41:31;98894.09;;;12.88;68.82
55079;BME280;55187;49.496;6.010;2024-01-30T10:44:08;98893.13;;;12.89;68.77
55079;BME280;55187;49.496;6.010;2024-01-30T10:46:40;98894.09;;;12.96;68.72
55079;BME280;55187;49.496;6.010;2024-01-30T10:49:07;98896.75;;;12.88;69.02
55079;BME280;55187;49.496;6.010;2024-01-30T10:51:36;98899.09;;;12.83;68.98
55079;BME280;55187;49.496;6.010;2024-01-30T10:54:05;98899.41;;;12.88;69.06
55079;BME280;55187;49.496;6.010;2024-01-30T10:56:32;98898.75;;;12.86;69.24
55079;BME280;55187;49.496;6.010;2024-01-30T10:58:59;98895.94;;;12.87;69.15
55079;BME280;55187;49.496;6.010;2024-01-30T11:01:27;98905.91;;;12.93;68.86
55079;BME280;55187;49.496;6.010;2024-01-30T11:03:54;98892.09;;;12.98;68.70
55079;BME280;55187;49.496;6.010;2024-01-30T11:06:23;98892.25;;;12.96;68.59
55079;BME280;55187;49.496;6.010;2024-01-30T11:09:03;98900.03;;;13.06;68.28
55079;BME280;55187;49.496;6.010;2024-01-30T11:11:58;98887.56;;;13.07;68.53
55079;BME280;55187;49.496;6.010;2024-01-30T11:14:27;98900.19;;;13.13;68.26
55079;BME280;55187;49.496;6.010;2024-01-30T11:16:58;98909.03;;;13.05;68.21
55079;BME280;55187;49.496;6.010;2024-01-30T11:19:26;98908.34;;;13.03;68.55
55079;BME280;55187;49.496;6.010;2024-01-30T11:21:53;98903.72;;;12.97;68.78
55079;BME280;55187;49.496;6.010;2024-01-30T11:24:20;98893.44;;;12.94;68.81
55079;BME280;55187;49.496;6.010;2024-01-30T11:26:57;98893.03;;;13.30;68.20
55079;BME280;55187;49.496;6.010;2024-01-30T11:29:34;98885.47;;;13.81;67.01
55079;BME280;55187;49.496;6.010;2024-01-30T11:32:01;98883.06;;;13.94;65.90
55079;BME280;55187;49.496;6.010;2024-01-30T11:34:27;98878.72;;;14.16;65.07
55079;BME280;55187;49.496;6.010;2024-01-30T11:36:59;98877.59;;;14.34;64.50
55079;BME280;55187;49.496;6.010;2024-01-30T11:39:31;98885.94;;;14.07;64.81
55079;BME280;55187;49.496;6.010;2024-01-30T11:41:58;98887.34;;;13.72;66.08
55079;BME280;55187;49.496;6.010;2024-01-30T11:44:25;98896.66;;;13.68;66.48
55079;BME280;55187;49.496;6.010;2024-01-30T11:46:52;98883.38;;;13.37;67.22
55079;BME280;55187;49.496;6.010;2024-01-30T11:49:18;98890.84;;;13.33;67.76
55079;BME280;55187;49.496;6.010;2024-01-30T11:51:45;98886.69;;;13.22;68.04
55079;BME280;55187;49.496;6.010;2024-01-30T11:54:12;98880.25;;;13.17;68.34
55079;BME280;55187;49.496;6.010;2024-01-30T11:56:38;98884.53;;;13.18;68.36
55079;BME280;55187;49.496;6.010;2024-01-30T11:59:04;98880.25;;;13.09;68.67
55079;BME280;55187;49.496;6.010;2024-01-30T12:01:31;98878.44;;;13.09;68.66
55079;BME280;55187;49.496;6.010;2024-01-30T12:03:59;98882.91;;;13.09;68.86
55079;BME280;55187;49.496;6.010;2024-01-30T12:06:25;98873.13;;;13.09;68.73
55079;BME280;55187;49.496;6.010;2024-01-30T12:09:00;98869.78;;;13.15;69.13
55079;BME280;55187;49.496;6.010;2024-01-30T12:11:27;98857.00;;;13.58;67.53
55079;BME280;55187;49.496;6.010;2024-01-30T12:13:56;98867.25;;;13.93;66.50
55079;BME280;55187;49.496;6.010;2024-01-30T12:16:22;98861.66;;;14.11;65.62
55079;BME280;55187;49.496;6.010;2024-01-30T12:20:12;98861.84;;;14.47;64.77
55079;BME280;55187;49.496;6.010;2024-01-30T12:22:43;98859.63;;;14.51;64.48
55079;BME280;55187;49.496;6.010;2024-01-30T12:27:57;98871.47;;;14.56;64.59
55079;BME280;55187;49.496;6.010;2024-01-30T12:30:23;98858.78;;;14.73;64.17
55079;BME280;55187;49.496;6.010;2024-01-30T12:32:51;98861.63;;;14.57;64.44
55079;BME280;55187;49.496;6.010;2024-01-30T12:35:19;98864.72;;;14.60;64.67
55079;BME280;55187;49.496;6.010;2024-01-30T12:37:46;98870.91;;;14.61;63.78
55079;BME280;55187;49.496;6.010;2024-01-30T12:40:14;98878.16;;;14.29;64.69
55079;BME280;55187;49.496;6.010;2024-01-30T12:42:41;98875.69;;;13.96;65.98
55079;BME280;55187;49.496;6.010;2024-01-30T12:45:13;98883.41;;;13.60;67.30
55079;BME280;55187;49.496;6.010;2024-01-30T12:47:41;98881.97;;;13.49;67.94
55079;BME280;55187;49.496;6.010;2024-01-30T12:50:08;98881.16;;;13.40;68.33
55079;BME280;55187;49.496;6.010;2024-01-30T12:52:35;98880.72;;;13.29;68.61
55079;BME280;55187;49.496;6.010;2024-01-30T12:55:01;98890.19;;;13.31;69.00
55079;BME280;55187;49.496;6.010;2024-01-30T12:57:30;98890.66;;;13.27;68.86
55079;BME280;55187;49.496;6.010;2024-01-30T12:59:56;98886.06;;;13.20;69.10
55079;BME280;55187;49.496;6.010;2024-01-30T13:02:22;98880.09;;;13.18;69.42
55079;BME280;55187;49.496;6.010;2024-01-30T13:04:49;98879.22;;;13.18;69.18
55079;BME280;55187;49.496;6.010;2024-01-30T13:07:16;98869.91;;;13.22;69.24
55079;BME280;55187;49.496;6.010;2024-01-30T13:09:42;98877.59;;;13.17;69.42
55079;BME280;55187;49.496;6.010;2024-01-30T13:12:09;98880.91;;;13.19;69.43
55079;BME280;55187;49.496;6.010;2024-01-30T13:14:35;98880.25;;;13.17;69.52
55079;BME280;55187;49.496;6.010;2024-01-30T13:17:01;98880.41;;;13.15;69.62
55079;BME280;55187;49.496;6.010;2024-01-30T13:19:28;98879.41;;;13.16;69.59
55079;BME280;55187;49.496;6.010;2024-01-30T13:21:54;98881.22;;;13.24;69.60
55079;BME280;55187;49.496;6.010;2024-01-30T13:24:21;98890.38;;;13.30;69.21
55079;BME280;55187;49.496;6.010;2024-01-30T13:26:48;98885.22;;;13.28;69.46
55079;BME280;55187;49.496;6.010;2024-01-30T13:29:15;98886.53;;;13.24;69.65
55079;BME280;55187;49.496;6.010;2024-01-30T13:31:41;98873.75;;;13.19;69.61
55079;BME280;55187;49.496;6.010;2024-01-30T13:34:08;98881.72;;;13.19;69.72
55079;BME280;55187;49.496;6.010;2024-01-30T13:36:34;98885.72;;;13.15;69.93
55079;BME280;55187;49.496;6.010;2024-01-30T13:39:00;98883.91;;;13.16;69.90
55079;BME280;55187;49.496;6.010;2024-01-30T13:41:27;98883.88;;;13.24;69.90
55079;BME280;55187;49.496;6.010;2024-01-30T13:43:53;98877.25;;;13.28;69.56
55079;BME280;55187;49.496;6.010;2024-01-30T13:46:20;98879.09;;;13.28;69.55
55079;BME280;55187;49.496;6.010;2024-01-30T13:48:46;98880.22;;;13.25;69.74
55079;BME280;55187;49.496;6.010;2024-01-30T13:51:13;98882.03;;;13.33;69.43
55079;BME280;55187;49.496;6.010;2024-01-30T13:53:39;98878.56;;;13.24;69.52
55079;BME280;55187;49.496;6.010;2024-01-30T13:56:07;98878.09;;;13.20;69.68
55079;BME280;55187;49.496;6.010;2024-01-30T13:58:33;98881.25;;;13.16;69.95
55079;BME280;55187;49.496;6.010;2024-01-30T14:01:02;98873.28;;;13.16;70.13
55079;BME280;55187;49.496;6.010;2024-01-30T14:03:28;98881.56;;;13.21;69.85
55079;BME280;55187;49.496;6.010;2024-01-30T14:05:55;98879.47;;;13.00;70.68
55079;BME280;55187;49.496;6.010;2024-01-30T14:08:21;98870.00;;;12.97;70.91
55079;BME280;55187;49.496;6.010;2024-01-30T14:10:50;98873.16;;;13.01;70.69
55079;BME280;55187;49.496;6.010;2024-01-30T14:13:16;98873.28;;;13.08;70.80
55079;BME280;55187;49.496;6.010;2024-01-30T14:15:43;98874.63;;;13.12;70.59
55079;BME280;55187;49.496;6.010;2024-01-30T18:21:00;99055.38;;;13.12;72.98